createdAt,value
2023-01-04T00:01:04.972Z,22.4
2023-01-04T00:06:05.537Z,22.9
2023-01-04T00:11:05.305Z,22.4
2023-01-04T00:16:09.059Z,22.9
2023-01-04T00:21:04.973Z,23.5
2023-01-04T00:26:05.001Z,23.5
2023-01-04T00:31:05.053Z,23.8
2023-01-04T00:36:05.058Z,23.9
2023-01-04T00:41:05.027Z,23.9
2023-01-04T00:46:05.080Z,24
2023-01-04T00:51:05.087Z,24
2023-01-04T00:56:05.015Z,24
2023-01-04T01:01:05.319Z,24
2023-01-04T01:06:05.063Z,25.2
2023-01-04T01:11:05.161Z,25.5
2023-01-04T01:16:56.936Z,25.5
2023-01-04T01:21:05.553Z,25.7
2023-01-04T01:26:05.132Z,25.7
2023-01-04T01:31:09.166Z,25.9
2023-01-04T01:36:05.108Z,25.7
2023-01-04T01:41:05.275Z,25.9
2023-01-04T01:46:05.038Z,25.4
2023-01-04T01:51:05.236Z,25.4
2023-01-04T01:56:05.047Z,25.1
2023-01-04T02:01:05.056Z,24.9
2023-01-04T02:06:05.030Z,24.8
2023-01-04T02:11:05.016Z,23.7
2023-01-04T02:16:05.204Z,23.7
2023-01-04T02:21:05.007Z,23.6
2023-01-04T02:26:05.019Z,23.6
2023-01-04T02:31:05.064Z,22.8
2023-01-04T02:36:05.155Z,22.6
2023-01-04T02:41:06.550Z,22.6
2023-01-04T02:46:05.377Z,22.6
2023-01-04T02:51:05.141Z,22.3
2023-01-04T02:56:05.029Z,22.6
2023-01-04T03:01:05.130Z,22.6
2023-01-04T03:06:05.077Z,22.6
2023-01-04T03:11:05.072Z,22.8
2023-01-04T03:16:05.043Z,22.6
2023-01-04T03:21:06.225Z,22.6
2023-01-04T03:26:05.017Z,22.8
2023-01-04T03:31:05.062Z,23.6
2023-01-04T03:36:05.109Z,23.6
2023-01-04T03:41:05.559Z,22.8
2023-01-04T03:46:05.111Z,22.7
2023-01-04T03:51:05.047Z,23.2
2023-01-04T03:56:05.035Z,23.2
2023-01-04T04:01:05.116Z,23.2
2023-01-04T04:06:05.124Z,22.8
2023-01-04T04:11:05.056Z,22.8
2023-01-04T04:16:05.069Z,23.2
2023-01-04T04:21:05.161Z,23.2
2023-01-04T04:26:05.063Z,23.2
2023-01-04T04:31:05.123Z,22.8
2023-01-04T04:36:05.125Z,22.8
2023-01-04T04:41:05.065Z,22.8
2023-01-04T04:46:05.231Z,21.7
2023-01-04T04:51:05.108Z,21.1
2023-01-04T04:56:05.154Z,21
2023-01-04T05:01:05.230Z,20.6
2023-01-04T05:06:05.120Z,20.5
2023-01-04T05:11:05.080Z,20.3
2023-01-04T05:16:05.176Z,20.3
2023-01-04T05:21:05.126Z,19.8
2023-01-04T05:26:05.057Z,19.6
2023-01-04T05:31:05.076Z,19.1
2023-01-04T05:36:05.180Z,19.1
2023-01-04T05:41:05.100Z,18.9
2023-01-04T05:46:05.171Z,18.8
2023-01-04T05:51:05.165Z,18.6
2023-01-04T05:56:05.096Z,18.2
2023-01-04T06:01:05.135Z,17.8
2023-01-04T06:06:05.125Z,17.8
2023-01-04T06:11:05.052Z,17.1
2023-01-04T06:16:05.581Z,17.1
2023-01-04T06:21:05.154Z,17.1
2023-01-04T06:26:05.087Z,17.4
2023-01-04T06:31:05.207Z,17.4
2023-01-04T06:36:05.145Z,17.8
2023-01-04T06:41:05.089Z,17.8
2023-01-04T06:46:05.139Z,17.8
2023-01-04T06:51:05.098Z,17.7
2023-01-04T06:56:05.092Z,18.4
2023-01-04T07:01:05.275Z,18.6
2023-01-04T07:06:05.182Z,18.6
2023-01-04T07:11:05.069Z,18.3
2023-01-04T07:16:05.116Z,18.1
2023-01-04T07:21:05.146Z,18.1
2023-01-04T07:26:05.091Z,18.1
2023-01-04T07:31:05.223Z,18.1
2023-01-04T07:36:05.331Z,18
2023-01-04T07:41:05.273Z,17.9
2023-01-04T07:46:05.208Z,18
2023-01-04T07:51:05.194Z,17.9
2023-01-04T07:56:05.116Z,17.9
2023-01-04T08:01:05.143Z,17.2
2023-01-04T08:06:05.225Z,17.1
2023-01-04T08:11:05.101Z,17.1
2023-01-04T08:16:05.214Z,17
2023-01-04T08:26:05.091Z,16.9
2023-01-04T08:31:05.240Z,16.9
2023-01-04T08:36:05.346Z,16.9
2023-01-04T08:41:31.223Z,16.6
2023-01-04T08:46:05.256Z,16.6
2023-01-04T08:51:05.174Z,16.6
2023-01-04T08:56:05.141Z,16.6
2023-01-04T09:01:05.155Z,16.6
2023-01-04T09:06:05.138Z,16.7
2023-01-04T09:11:05.162Z,16.6
2023-01-04T09:16:06.847Z,16.7
2023-01-04T09:21:05.156Z,16.7
2023-01-04T09:26:11.427Z,16.7
2023-01-04T09:31:07.174Z,15.8
2023-01-04T09:36:09.447Z,15.8
2023-01-04T09:41:05.219Z,15.5
2023-01-04T09:46:05.317Z,15.3
2023-01-04T09:51:06.263Z,15.3
2023-01-04T09:56:08.156Z,15.1
2023-01-04T10:01:06.552Z,14.8
2023-01-04T10:06:06.210Z,14.4
2023-01-04T10:11:05.176Z,13.1
2023-01-04T10:16:05.440Z,11
2023-01-04T10:21:26.696Z,10
2023-01-04T10:26:05.095Z,10
2023-01-04T10:31:38.320Z,10
2023-01-04T10:36:05.267Z,9.7
2023-01-04T10:41:05.258Z,9.6
2023-01-04T10:46:05.140Z,9.6
2023-01-04T10:51:11.215Z,9.4
2023-01-04T10:56:24.849Z,9.2
2023-01-04T11:01:05.249Z,8.9
2023-01-04T11:06:05.139Z,8.9
2023-01-04T11:11:05.373Z,8.8
2023-01-04T11:16:05.111Z,8.8
2023-01-04T11:21:05.426Z,8.7
2023-01-04T11:26:05.141Z,8.6
2023-01-04T11:31:05.268Z,8.6
2023-01-04T11:36:05.277Z,8.5
2023-01-04T11:41:06.388Z,8.3
2023-01-04T11:46:05.238Z,8.3
2023-01-04T11:51:05.242Z,8.3
2023-01-04T11:56:05.301Z,8.3
2023-01-04T12:01:05.215Z,8.2
2023-01-04T12:06:05.130Z,8
2023-01-04T12:11:06.366Z,8
2023-01-04T12:16:05.122Z,7.8
2023-01-04T12:21:05.149Z,7.8
2023-01-04T12:26:05.143Z,8
2023-01-04T12:31:06.184Z,7.8
2023-01-04T12:36:05.272Z,7.7
2023-01-04T12:41:05.279Z,7.7
2023-01-04T12:46:05.431Z,7.5
2023-01-04T12:51:29.830Z,7.5
2023-01-04T12:56:07.919Z,7.5
2023-01-04T13:01:05.190Z,7.5
2023-01-04T13:06:05.153Z,7.5
2023-01-04T13:11:06.606Z,7.5
2023-01-04T13:16:05.275Z,7.5
2023-01-04T13:21:05.160Z,7.4
2023-01-04T13:26:05.185Z,7.4
2023-01-04T13:31:05.220Z,7.5
2023-01-04T13:36:05.854Z,7.5
2023-01-04T13:41:05.193Z,7.5
2023-01-04T13:46:08.312Z,7.5
2023-01-04T13:51:05.233Z,7.5
2023-01-04T13:56:05.407Z,7.5
2023-01-04T14:01:05.320Z,7.5
2023-01-04T14:06:06.197Z,7.5
2023-01-04T14:11:05.176Z,7.4
2023-01-04T14:16:05.263Z,7.5
2023-01-04T14:21:05.292Z,7.5
2023-01-04T14:26:05.166Z,7.4
2023-01-04T14:31:05.171Z,7.3
2023-01-04T14:36:05.275Z,7.3
2023-01-04T14:41:05.168Z,7.3
2023-01-04T14:46:05.497Z,7.2
2023-01-04T14:51:05.280Z,7.1
2023-01-04T14:56:05.208Z,7.1
2023-01-04T15:01:05.177Z,7.1
2023-01-04T15:06:05.252Z,7.1
2023-01-04T15:11:05.277Z,7.1
2023-01-04T15:16:05.335Z,7
2023-01-04T15:21:05.202Z,7
2023-01-04T15:26:05.196Z,7.2
2023-01-04T15:31:05.208Z,7.2
2023-01-04T15:36:05.295Z,7.3
2023-01-04T15:41:05.205Z,7.7
2023-01-04T15:46:05.294Z,7.3
2023-01-04T15:51:05.234Z,7.3
2023-01-04T15:56:05.299Z,7.3
2023-01-04T16:01:08.372Z,7.1
2023-01-04T16:06:05.203Z,7.1
2023-01-04T16:11:05.192Z,7.1
2023-01-04T16:16:05.251Z,7.1
2023-01-04T16:21:05.189Z,7.1
2023-01-04T16:26:05.241Z,7.1
2023-01-04T16:31:05.233Z,7.1
2023-01-04T16:36:05.350Z,7.2
2023-01-04T16:41:05.250Z,7.2
2023-01-04T16:46:05.200Z,7.3
2023-01-04T16:56:05.200Z,7.2
2023-01-04T17:01:05.291Z,7.2
2023-01-04T17:06:05.195Z,7.2
2023-01-04T17:11:42.552Z,7.2
2023-01-04T17:16:05.295Z,7.2
2023-01-04T17:21:31.801Z,7.2
2023-01-04T17:26:05.215Z,7.2
2023-01-04T17:31:05.218Z,7.3
2023-01-04T17:36:05.281Z,7.3
2023-01-04T17:41:05.248Z,7.3
2023-01-04T17:46:05.363Z,7.3
2023-01-04T17:51:05.293Z,7.3
2023-01-04T17:56:05.214Z,7.2
2023-01-04T18:01:05.204Z,7.2
2023-01-04T18:06:25.598Z,7.2
2023-01-04T18:11:09.302Z,7.2
2023-01-04T18:16:23.709Z,7.2
2023-01-04T18:21:26.946Z,7.3
2023-01-04T18:26:05.230Z,7.3
2023-01-04T18:31:05.612Z,7.3
2023-01-04T18:36:05.362Z,7.6
2023-01-04T18:41:05.340Z,7.6
2023-01-04T18:46:05.484Z,7.6
2023-01-04T18:51:05.245Z,7.3
2023-01-04T18:56:05.323Z,7.3
2023-01-04T19:01:05.515Z,7.3
2023-01-04T19:06:05.257Z,7.3
2023-01-04T19:11:05.237Z,7.2
2023-01-04T19:16:05.555Z,7.1
2023-01-04T19:21:05.247Z,7.1
2023-01-04T19:26:05.279Z,7.1
2023-01-04T19:31:07.023Z,7.1
2023-01-04T19:36:05.384Z,7.1
2023-01-04T19:41:05.263Z,7.1
2023-01-04T19:46:05.276Z,7.1
2023-01-04T19:51:05.247Z,7.2
2023-01-04T19:56:05.303Z,7.2
2023-01-04T20:01:05.315Z,7.2
2023-01-04T20:06:05.274Z,7.2
2023-01-04T20:11:05.232Z,7.2
2023-01-04T20:16:05.238Z,7.1
2023-01-04T20:21:05.254Z,7.1
2023-01-04T20:26:11.939Z,7.1
2023-01-04T20:31:05.305Z,7.1
2023-01-04T20:36:05.569Z,7.1
2023-01-04T20:41:05.271Z,7.1
2023-01-04T20:46:05.349Z,7.1
2023-01-04T20:51:05.339Z,7.1
2023-01-04T20:56:05.391Z,7.1
2023-01-04T21:01:05.375Z,7.1
2023-01-04T21:06:05.252Z,7.1
2023-01-04T21:11:05.279Z,7.1
2023-01-04T21:16:05.288Z,7.2
2023-01-04T21:21:05.408Z,7.1
2023-01-04T21:26:05.405Z,7.1
2023-01-04T21:31:05.409Z,7.1
2023-01-04T21:36:05.499Z,7.1
2023-01-04T21:41:05.535Z,7.2
2023-01-04T21:46:05.348Z,7.2
2023-01-04T21:51:05.315Z,7.2
2023-01-04T21:56:05.382Z,7.4
2023-01-04T22:01:05.440Z,7.4
2023-01-04T22:06:05.277Z,7.4
2023-01-04T22:11:05.285Z,7.4
2023-01-04T22:16:05.317Z,7.2
2023-01-04T22:21:05.285Z,7.1
2023-01-04T22:26:05.311Z,7.1
2023-01-04T22:31:05.329Z,7.1
2023-01-04T22:36:05.457Z,7.1
2023-01-04T22:41:05.326Z,7.1
2023-01-04T22:46:05.349Z,7.1
2023-01-04T22:51:05.396Z,7
2023-01-04T22:56:20.645Z,7
2023-01-04T23:01:05.300Z,7
2023-01-04T23:06:05.337Z,7
2023-01-04T23:11:05.414Z,7
2023-01-04T23:16:05.376Z,7
2023-01-04T23:21:05.439Z,7
2023-01-04T23:26:06.335Z,7
2023-01-04T23:31:05.370Z,7
2023-01-04T23:36:05.692Z,7
2023-01-04T23:41:05.332Z,7
2023-01-04T23:46:05.346Z,7
2023-01-04T23:51:05.375Z,7
2023-01-04T23:56:05.300Z,7
